sensor_id;sensor_type;location;lat;lon;timestamp;temperature;humidity
790;DHT22;378;48.844;9.156;2023-08-21T00:01:40;25.60;99.90
790;DHT22;378;48.844;9.156;2023-08-21T00:04:07;25.50;99.90
790;DHT22;378;48.844;9.156;2023-08-21T00:06:33;25.50;99.90
790;DHT22;378;48.844;9.156;2023-08-21T00:09:01;25.50;99.90
790;DHT22;378;48.844;9.156;2023-08-21T00:11:29;25.40;99.90
790;DHT22;378;48.844;9.156;2023-08-21T00:13:56;25.40;99.90
790;DHT22;378;48.844;9.156;2023-08-21T00:16:23;25.30;99.90
790;DHT22;378;48.844;9.156;2023-08-21T00:18:52;25.30;99.90
790;DHT22;378;48.844;9.156;2023-08-21T00:21:19;25.30;99.90
790;DHT22;378;48.844;9.156;2023-08-21T00:23:46;25.30;99.90
790;DHT22;378;48.844;9.156;2023-08-21T00:26:13;25.30;99.90
790;DHT22;378;48.844;9.156;2023-08-21T00:28:41;25.30;99.90
790;DHT22;378;48.844;9.156;2023-08-21T00:31:08;25.40;99.90
790;DHT22;378;48.844;9.156;2023-08-21T00:33:34;25.30;99.90
790;DHT22;378;48.844;9.156;2023-08-21T00:36:02;25.30;99.90
790;DHT22;378;48.844;9.156;2023-08-21T00:38:29;25.30;99.90
790;DHT22;378;48.844;9.156;2023-08-21T00:40:56;25.30;99.90
790;DHT22;378;48.844;9.156;2023-08-21T00:43:23;25.30;99.90
790;DHT22;378;48.844;9.156;2023-08-21T00:45:51;25.30;99.90
790;DHT22;378;48.844;9.156;2023-08-21T00:48:19;25.20;99.90
790;DHT22;378;48.844;9.156;2023-08-21T00:50:46;25.10;99.90
790;DHT22;378;48.844;9.156;2023-08-21T00:53:13;25.10;99.90
790;DHT22;378;48.844;9.156;2023-08-21T00:55:40;25.10;99.90
790;DHT22;378;48.844;9.156;2023-08-21T00:58:09;25.10;99.90
790;DHT22;378;48.844;9.156;2023-08-21T01:00:36;25.10;99.90
790;DHT22;378;48.844;9.156;2023-08-21T01:03:04;25.00;99.90
790;DHT22;378;48.844;9.156;2023-08-21T01:05:31;25.00;99.90
790;DHT22;378;48.844;9.156;2023-08-21T01:08:02;24.90;99.90
790;DHT22;378;48.844;9.156;2023-08-21T01:10:43;24.90;99.90
790;DHT22;378;48.844;9.156;2023-08-21T01:13:33;24.80;99.90
790;DHT22;378;48.844;9.156;2023-08-21T01:16:01;24.80;99.90
790;DHT22;378;48.844;9.156;2023-08-21T01:18:32;24.80;99.90
790;DHT22;378;48.844;9.156;2023-08-21T01:21:02;24.80;99.90
790;DHT22;378;48.844;9.156;2023-08-21T01:23:32;24.70;99.90
790;DHT22;378;48.844;9.156;2023-08-21T01:25:59;24.70;99.90
790;DHT22;378;48.844;9.156;2023-08-21T01:28:26;24.60;99.90
790;DHT22;378;48.844;9.156;2023-08-21T01:30:59;24.50;99.90
790;DHT22;378;48.844;9.156;2023-08-21T01:33:30;24.40;99.90
790;DHT22;378;48.844;9.156;2023-08-21T01:36:02;24.30;99.90
790;DHT22;378;48.844;9.156;2023-08-21T01:38:32;24.30;99.90
790;DHT22;378;48.844;9.156;2023-08-21T01:41:00;24.30;99.90
790;DHT22;378;48.844;9.156;2023-08-21T01:43:27;24.30;99.90
790;DHT22;378;48.844;9.156;2023-08-21T01:45:54;24.30;99.90
790;DHT22;378;48.844;9.156;2023-08-21T01:48:21;24.30;99.90
790;DHT22;378;48.844;9.156;2023-08-21T01:50:48;24.40;99.90
790;DHT22;378;48.844;9.156;2023-08-21T01:53:15;24.40;99.90
790;DHT22;378;48.844;9.156;2023-08-21T01:55:43;24.30;99.90
790;DHT22;378;48.844;9.156;2023-08-21T01:58:10;24.30;99.90
790;DHT22;378;48.844;9.156;2023-08-21T02:00:36;24.30;99.90
790;DHT22;378;48.844;9.156;2023-08-21T02:03:03;24.20;99.90
790;DHT22;378;48.844;9.156;2023-08-21T02:05:30;24.20;99.90
790;DHT22;378;48.844;9.156;2023-08-21T02:07:57;24.20;99.90
790;DHT22;378;48.844;9.156;2023-08-21T02:10:24;24.20;99.90
790;DHT22;378;48.844;9.156;2023-08-21T02:12:52;24.20;99.90
790;DHT22;378;48.844;9.156;2023-08-21T02:15:19;24.20;99.90
790;DHT22;378;48.844;9.156;2023-08-21T02:17:47;24.10;99.90
790;DHT22;378;48.844;9.156;2023-08-21T02:20:14;24.10;99.90
790;DHT22;378;48.844;9.156;2023-08-21T02:22:41;24.00;99.90
790;DHT22;378;48.844;9.156;2023-08-21T02:25:08;24.10;99.90
790;DHT22;378;48.844;9.156;2023-08-21T02:27:36;24.00;99.90
790;DHT22;378;48.844;9.156;2023-08-21T02:30:05;24.10;99.90
790;DHT22;378;48.844;9.156;2023-08-21T02:32:32;24.00;99.90
790;DHT22;378;48.844;9.156;2023-08-21T02:35:00;24.00;99.90
790;DHT22;378;48.844;9.156;2023-08-21T02:37:26;24.00;99.90
790;DHT22;378;48.844;9.156;2023-08-21T02:39:53;24.00;99.90
790;DHT22;378;48.844;9.156;2023-08-21T02:42:20;24.00;99.90
790;DHT22;378;48.844;9.156;2023-08-21T02:44:47;24.00;99.90
790;DHT22;378;48.844;9.156;2023-08-21T02:47:15;24.00;99.90
790;DHT22;378;48.844;9.156;2023-08-21T02:49:42;24.00;99.90
790;DHT22;378;48.844;9.156;2023-08-21T02:52:09;23.90;99.90
790;DHT22;378;48.844;9.156;2023-08-21T02:54:36;23.80;99.90
790;DHT22;378;48.844;9.156;2023-08-21T02:57:03;23.80;99.90
790;DHT22;378;48.844;9.156;2023-08-21T02:59:30;23.80;99.90
790;DHT22;378;48.844;9.156;2023-08-21T03:01:56;23.80;99.90
790;DHT22;378;48.844;9.156;2023-08-21T03:04:24;23.70;99.90
790;DHT22;378;48.844;9.156;2023-08-21T03:06:51;23.70;99.90
790;DHT22;378;48.844;9.156;2023-08-21T03:09:18;23.80;99.90
790;DHT22;378;48.844;9.156;2023-08-21T03:11:45;23.70;99.90
790;DHT22;378;48.844;9.156;2023-08-21T03:14:12;23.70;99.90
790;DHT22;378;48.844;9.156;2023-08-21T03:16:38;23.70;99.90
790;DHT22;378;48.844;9.156;2023-08-21T03:19:05;23.70;99.90
790;DHT22;378;48.844;9.156;2023-08-21T03:21:33;23.70;99.90
790;DHT22;378;48.844;9.156;2023-08-21T03:24:00;23.60;99.90
790;DHT22;378;48.844;9.156;2023-08-21T03:26:27;23.60;99.90
790;DHT22;378;48.844;9.156;2023-08-21T03:28:54;23.60;99.90
790;DHT22;378;48.844;9.156;2023-08-21T03:31:21;23.60;99.90
790;DHT22;378;48.844;9.156;2023-08-21T03:33:48;23.60;99.90
790;DHT22;378;48.844;9.156;2023-08-21T03:36:14;23.60;99.90
790;DHT22;378;48.844;9.156;2023-08-21T03:38:42;23.60;99.90
790;DHT22;378;48.844;9.156;2023-08-21T03:41:09;23.50;99.90
790;DHT22;378;48.844;9.156;2023-08-21T03:43:36;23.50;99.90
790;DHT22;378;48.844;9.156;2023-08-21T03:46:03;23.50;99.90
790;DHT22;378;48.844;9.156;2023-08-21T03:48:30;23.50;99.90
790;DHT22;378;48.844;9.156;2023-08-21T03:50:57;23.50;99.90
790;DHT22;378;48.844;9.156;2023-08-21T03:53:24;23.40;99.90
790;DHT22;378;48.844;9.156;2023-08-21T03:55:52;23.50;99.90
790;DHT22;378;48.844;9.156;2023-08-21T03:58:19;23.40;99.90
790;DHT22;378;48.844;9.156;2023-08-21T04:00:46;23.40;99.90
790;DHT22;378;48.844;9.156;2023-08-21T04:03:13;23.40;99.90
790;DHT22;378;48.844;9.156;2023-08-21T04:05:40;23.30;99.90
790;DHT22;378;48.844;9.156;2023-08-21T04:08:07;23.30;99.90
790;DHT22;378;48.844;9.156;2023-08-21T04:10:33;23.40;99.90
790;DHT22;378;48.844;9.156;2023-08-21T04:13:02;23.30;99.90
790;DHT22;378;48.844;9.156;2023-08-21T04:15:29;23.30;99.90
790;DHT22;378;48.844;9.156;2023-08-21T04:17:56;23.30;99.90
790;DHT22;378;48.844;9.156;2023-08-21T04:20:23;23.30;99.90
790;DHT22;378;48.844;9.156;2023-08-21T04:22:50;23.20;99.90
790;DHT22;378;48.844;9.156;2023-08-21T04:25:17;23.20;99.90
790;DHT22;378;48.844;9.156;2023-08-21T04:27:44;23.20;99.90
790;DHT22;378;48.844;9.156;2023-08-21T04:30:12;23.10;99.90
790;DHT22;378;48.844;9.156;2023-08-21T04:32:39;23.10;99.90
790;DHT22;378;48.844;9.156;2023-08-21T04:35:06;23.10;99.90
790;DHT22;378;48.844;9.156;2023-08-21T04:37:34;23.10;99.90
790;DHT22;378;48.844;9.156;2023-08-21T04:40:01;23.10;99.90
790;DHT22;378;48.844;9.156;2023-08-21T04:42:28;23.10;99.90
790;DHT22;378;48.844;9.156;2023-08-21T04:44:55;23.10;99.90
790;DHT22;378;48.844;9.156;2023-08-21T04:47:24;23.10;99.90
790;DHT22;378;48.844;9.156;2023-08-21T04:49:52;23.10;99.90
790;DHT22;378;48.844;9.156;2023-08-21T04:52:20;23.10;99.90
790;DHT22;378;48.844;9.156;2023-08-21T04:54:56;23.10;99.90
790;DHT22;378;48.844;9.156;2023-08-21T04:57:23;23.10;99.90
790;DHT22;378;48.844;9.156;2023-08-21T04:59:49;23.20;99.90
790;DHT22;378;48.844;9.156;2023-08-21T05:02:16;23.10;99.90
790;DHT22;378;48.844;9.156;2023-08-21T05:04:44;23.10;99.90
790;DHT22;378;48.844;9.156;2023-08-21T05:07:11;23.10;99.90
790;DHT22;378;48.844;9.156;2023-08-21T05:09:38;23.10;99.90
790;DHT22;378;48.844;9.156;2023-08-21T05:12:06;23.10;99.90
790;DHT22;378;48.844;9.156;2023-08-21T05:14:33;23.20;99.90
790;DHT22;378;48.844;9.156;2023-08-21T05:17:00;23.20;99.90
790;DHT22;378;48.844;9.156;2023-08-21T05:19:27;23.20;99.90
790;DHT22;378;48.844;9.156;2023-08-21T05:21:55;23.20;99.90
790;DHT22;378;48.844;9.156;2023-08-21T05:24:22;23.20;99.90
790;DHT22;378;48.844;9.156;2023-08-21T05:26:49;23.20;99.90
790;DHT22;378;48.844;9.156;2023-08-21T05:29:15;23.30;99.90
790;DHT22;378;48.844;9.156;2023-08-21T05:31:42;23.30;99.90
790;DHT22;378;48.844;9.156;2023-08-21T05:34:09;23.30;99.90
790;DHT22;378;48.844;9.156;2023-08-21T05:36:36;23.30;99.90
790;DHT22;378;48.844;9.156;2023-08-21T05:39:08;23.30;99.90
790;DHT22;378;48.844;9.156;2023-08-21T05:41:35;23.30;99.90
790;DHT22;378;48.844;9.156;2023-08-21T05:44:16;23.30;99.90
790;DHT22;378;48.844;9.156;2023-08-21T05:46:43;23.30;99.90
790;DHT22;378;48.844;9.156;2023-08-21T05:49:09;23.30;99.90
790;DHT22;378;48.844;9.156;2023-08-21T05:51:36;23.30;99.90
790;DHT22;378;48.844;9.156;2023-08-21T05:54:04;23.30;99.90
790;DHT22;378;48.844;9.156;2023-08-21T05:56:31;23.40;99.90
790;DHT22;378;48.844;9.156;2023-08-21T05:58:58;23.50;99.90
790;DHT22;378;48.844;9.156;2023-08-21T06:01:25;23.50;99.90
790;DHT22;378;48.844;9.156;2023-08-21T06:03:52;23.60;99.90
790;DHT22;378;48.844;9.156;2023-08-21T06:06:18;23.70;99.90
790;DHT22;378;48.844;9.156;2023-08-21T06:08:45;23.70;99.90
790;DHT22;378;48.844;9.156;2023-08-21T06:11:13;23.80;99.90
790;DHT22;378;48.844;9.156;2023-08-21T06:13:43;23.90;99.90
790;DHT22;378;48.844;9.156;2023-08-21T06:16:10;23.90;99.90
790;DHT22;378;48.844;9.156;2023-08-21T06:18:36;23.90;99.90
790;DHT22;378;48.844;9.156;2023-08-21T06:21:06;23.90;99.90
790;DHT22;378;48.844;9.156;2023-08-21T06:23:35;24.00;99.90
790;DHT22;378;48.844;9.156;2023-08-21T06:26:02;24.00;99.90
790;DHT22;378;48.844;9.156;2023-08-21T06:28:31;24.10;99.90
790;DHT22;378;48.844;9.156;2023-08-21T06:31:01;24.10;99.90
790;DHT22;378;48.844;9.156;2023-08-21T06:33:33;24.10;99.90
790;DHT22;378;48.844;9.156;2023-08-21T06:35:59;24.10;99.90
790;DHT22;378;48.844;9.156;2023-08-21T06:38:26;24.20;99.90
790;DHT22;378;48.844;9.156;2023-08-21T06:40:53;24.20;99.90
790;DHT22;378;48.844;9.156;2023-08-21T06:43:23;24.30;99.90
790;DHT22;378;48.844;9.156;2023-08-21T06:45:51;24.30;99.90
790;DHT22;378;48.844;9.156;2023-08-21T06:48:18;24.30;99.90
790;DHT22;378;48.844;9.156;2023-08-21T06:50:45;24.30;99.90
790;DHT22;378;48.844;9.156;2023-08-21T06:53:11;24.40;99.90
790;DHT22;378;48.844;9.156;2023-08-21T06:55:38;24.40;99.90
790;DHT22;378;48.844;9.156;2023-08-21T06:58:05;24.40;99.90
790;DHT22;378;48.844;9.156;2023-08-21T07:00:32;24.50;99.90
790;DHT22;378;48.844;9.156;2023-08-21T07:03:00;24.60;99.90
790;DHT22;378;48.844;9.156;2023-08-21T07:05:28;24.60;99.90
790;DHT22;378;48.844;9.156;2023-08-21T07:07:55;24.60;99.90
790;DHT22;378;48.844;9.156;2023-08-21T07:10:25;24.60;99.90
790;DHT22;378;48.844;9.156;2023-08-21T07:12:53;24.70;99.90
790;DHT22;378;48.844;9.156;2023-08-21T07:15:20;24.70;99.90
790;DHT22;378;48.844;9.156;2023-08-21T07:17:46;24.80;99.90
790;DHT22;378;48.844;9.156;2023-08-21T07:20:15;24.80;99.90
790;DHT22;378;48.844;9.156;2023-08-21T07:22:41;24.80;99.90
790;DHT22;378;48.844;9.156;2023-08-21T07:25:08;24.90;99.90
790;DHT22;378;48.844;9.156;2023-08-21T07:27:35;24.90;99.90
790;DHT22;378;48.844;9.156;2023-08-21T07:30:02;25.00;99.90
790;DHT22;378;48.844;9.156;2023-08-21T07:32:29;25.00;99.90
790;DHT22;378;48.844;9.156;2023-08-21T07:34:56;25.10;99.90
790;DHT22;378;48.844;9.156;2023-08-21T07:37:24;25.10;99.90
790;DHT22;378;48.844;9.156;2023-08-21T07:39:52;25.10;99.90
790;DHT22;378;48.844;9.156;2023-08-21T07:42:19;25.20;99.90
790;DHT22;378;48.844;9.156;2023-08-21T07:44:45;25.20;99.90
790;DHT22;378;48.844;9.156;2023-08-21T07:47:12;25.30;99.90
790;DHT22;378;48.844;9.156;2023-08-21T07:49:39;25.30;99.90
790;DHT22;378;48.844;9.156;2023-08-21T07:52:06;25.30;99.90
790;DHT22;378;48.844;9.156;2023-08-21T07:54:34;25.30;99.90
790;DHT22;378;48.844;9.156;2023-08-21T07:57:01;25.40;99.90
790;DHT22;378;48.844;9.156;2023-08-21T07:59:29;25.40;99.90
790;DHT22;378;48.844;9.156;2023-08-21T08:01:56;25.50;99.90
790;DHT22;378;48.844;9.156;2023-08-21T08:04:23;25.50;99.90
790;DHT22;378;48.844;9.156;2023-08-21T08:06:50;25.60;99.90
790;DHT22;378;48.844;9.156;2023-08-21T08:09:17;25.60;99.90
790;DHT22;378;48.844;9.156;2023-08-21T08:11:45;25.60;99.90
790;DHT22;378;48.844;9.156;2023-08-21T08:14:12;25.70;99.90
790;DHT22;378;48.844;9.156;2023-08-21T08:16:38;25.70;99.90
790;DHT22;378;48.844;9.156;2023-08-21T08:19:05;25.70;99.90
790;DHT22;378;48.844;9.156;2023-08-21T08:21:32;25.70;99.90
790;DHT22;378;48.844;9.156;2023-08-21T08:23:59;25.70;99.90
790;DHT22;378;48.844;9.156;2023-08-21T08:26:26;25.80;99.90
790;DHT22;378;48.844;9.156;2023-08-21T08:28:54;25.90;99.90
790;DHT22;378;48.844;9.156;2023-08-21T08:31:22;26.00;99.90
790;DHT22;378;48.844;9.156;2023-08-21T08:33:51;26.20;99.90
790;DHT22;378;48.844;9.156;2023-08-21T08:36:18;26.30;99.90
790;DHT22;378;48.844;9.156;2023-08-21T08:38:45;26.30;99.90
790;DHT22;378;48.844;9.156;2023-08-21T08:41:29;26.30;99.90
790;DHT22;378;48.844;9.156;2023-08-21T08:43:59;26.40;99.90
790;DHT22;378;48.844;9.156;2023-08-21T08:46:29;26.40;99.90
790;DHT22;378;48.844;9.156;2023-08-21T08:48:56;26.50;99.90
790;DHT22;378;48.844;9.156;2023-08-21T08:51:24;26.50;99.90
790;DHT22;378;48.844;9.156;2023-08-21T08:53:51;26.50;99.90
790;DHT22;378;48.844;9.156;2023-08-21T08:56:18;26.50;99.90
790;DHT22;378;48.844;9.156;2023-08-21T08:58:45;26.50;99.90
790;DHT22;378;48.844;9.156;2023-08-21T09:01:14;26.50;99.90
790;DHT22;378;48.844;9.156;2023-08-21T09:03:41;26.50;99.90
790;DHT22;378;48.844;9.156;2023-08-21T09:06:08;26.60;99.90
790;DHT22;378;48.844;9.156;2023-08-21T09:08:35;26.70;99.90
790;DHT22;378;48.844;9.156;2023-08-21T09:27:43;27.00;99.90
790;DHT22;378;48.844;9.156;2023-08-21T09:30:52;27.10;99.90
790;DHT22;378;48.844;9.156;2023-08-21T09:33:30;27.10;99.90
790;DHT22;378;48.844;9.156;2023-08-21T09:36:33;27.20;99.90
790;DHT22;378;48.844;9.156;2023-08-21T09:46:23;27.30;99.90
790;DHT22;378;48.844;9.156;2023-08-21T09:49:53;27.40;99.90
790;DHT22;378;48.844;9.156;2023-08-21T09:52:40;27.50;99.90
790;DHT22;378;48.844;9.156;2023-08-21T09:55:29;27.50;99.90
790;DHT22;378;48.844;9.156;2023-08-21T09:59:45;27.70;99.90
790;DHT22;378;48.844;9.156;2023-08-21T10:37:10;28.50;99.90
790;DHT22;378;48.844;9.156;2023-08-21T10:40:04;28.60;99.90
790;DHT22;378;48.844;9.156;2023-08-21T10:42:38;28.70;99.90
790;DHT22;378;48.844;9.156;2023-08-21T10:45:13;28.80;99.90
790;DHT22;378;48.844;9.156;2023-08-21T10:47:40;28.80;99.90
790;DHT22;378;48.844;9.156;2023-08-21T10:50:08;28.90;99.90
790;DHT22;378;48.844;9.156;2023-08-21T10:52:38;28.80;99.90
790;DHT22;378;48.844;9.156;2023-08-21T10:55:08;28.90;99.90
790;DHT22;378;48.844;9.156;2023-08-21T10:57:35;28.90;99.90
790;DHT22;378;48.844;9.156;2023-08-21T11:00:04;28.90;99.90
790;DHT22;378;48.844;9.156;2023-08-21T11:02:33;28.90;99.90
790;DHT22;378;48.844;9.156;2023-08-21T11:05:00;29.00;99.90
790;DHT22;378;48.844;9.156;2023-08-21T11:07:28;29.10;99.90
790;DHT22;378;48.844;9.156;2023-08-21T11:09:57;29.10;99.90
790;DHT22;378;48.844;9.156;2023-08-21T11:12:24;29.30;99.90
790;DHT22;378;48.844;9.156;2023-08-21T11:14:51;29.40;99.90
790;DHT22;378;48.844;9.156;2023-08-21T11:17:18;29.30;99.90
790;DHT22;378;48.844;9.156;2023-08-21T11:19:45;29.40;99.90
790;DHT22;378;48.844;9.156;2023-08-21T11:22:13;29.40;99.90
790;DHT22;378;48.844;9.156;2023-08-21T11:24:45;29.50;99.90
790;DHT22;378;48.844;9.156;2023-08-21T11:27:15;29.50;99.90
790;DHT22;378;48.844;9.156;2023-08-21T11:29:43;29.50;99.90
790;DHT22;378;48.844;9.156;2023-08-21T11:32:12;29.50;99.90
790;DHT22;378;48.844;9.156;2023-08-21T11:34:39;29.50;99.90
790;DHT22;378;48.844;9.156;2023-08-21T11:37:07;29.60;99.90
790;DHT22;378;48.844;9.156;2023-08-21T11:39:42;29.60;99.90
790;DHT22;378;48.844;9.156;2023-08-21T11:42:10;29.70;99.90
790;DHT22;378;48.844;9.156;2023-08-21T11:44:44;29.80;99.90
790;DHT22;378;48.844;9.156;2023-08-21T11:47:11;29.90;99.90
790;DHT22;378;48.844;9.156;2023-08-21T11:49:39;29.90;99.90
790;DHT22;378;48.844;9.156;2023-08-21T11:52:08;29.90;99.90
790;DHT22;378;48.844;9.156;2023-08-21T11:54:35;30.00;99.90
790;DHT22;378;48.844;9.156;2023-08-21T11:57:06;30.00;99.90
790;DHT22;378;48.844;9.156;2023-08-21T11:59:33;30.20;99.90
790;DHT22;378;48.844;9.156;2023-08-21T12:02:09;30.20;99.90
790;DHT22;378;48.844;9.156;2023-08-21T12:04:36;30.20;99.90
790;DHT22;378;48.844;9.156;2023-08-21T12:07:03;30.20;99.90
790;DHT22;378;48.844;9.156;2023-08-21T12:09:30;30.30;99.90
790;DHT22;378;48.844;9.156;2023-08-21T12:11:56;30.30;99.90
790;DHT22;378;48.844;9.156;2023-08-21T12:14:23;30.30;99.90
790;DHT22;378;48.844;9.156;2023-08-21T12:16:50;30.40;99.90
790;DHT22;378;48.844;9.156;2023-08-21T12:19:18;30.40;99.90
790;DHT22;378;48.844;9.156;2023-08-21T12:21:45;30.30;99.90
790;DHT22;378;48.844;9.156;2023-08-21T12:24:12;30.30;99.90
790;DHT22;378;48.844;9.156;2023-08-21T12:26:38;30.40;99.90
790;DHT22;378;48.844;9.156;2023-08-21T12:29:05;30.40;99.90
790;DHT22;378;48.844;9.156;2023-08-21T12:31:32;30.50;99.90
790;DHT22;378;48.844;9.156;2023-08-21T12:33:59;30.50;99.90
790;DHT22;378;48.844;9.156;2023-08-21T12:36:27;30.50;99.90
790;DHT22;378;48.844;9.156;2023-08-21T12:38:54;30.60;99.90
790;DHT22;378;48.844;9.156;2023-08-21T12:41:21;30.60;99.90
790;DHT22;378;48.844;9.156;2023-08-21T12:43:48;30.70;99.90
790;DHT22;378;48.844;9.156;2023-08-21T12:46:15;30.80;99.90
790;DHT22;378;48.844;9.156;2023-08-21T12:48:41;30.70;99.90
790;DHT22;378;48.844;9.156;2023-08-21T12:51:08;30.70;99.90
790;DHT22;378;48.844;9.156;2023-08-21T12:53:36;30.60;99.90
790;DHT22;378;48.844;9.156;2023-08-21T12:56:03;30.60;99.90
790;DHT22;378;48.844;9.156;2023-08-21T12:58:30;30.60;99.90
790;DHT22;378;48.844;9.156;2023-08-21T13:00:58;30.60;99.90
790;DHT22;378;48.844;9.156;2023-08-21T13:03:25;30.50;99.90
790;DHT22;378;48.844;9.156;2023-08-21T13:05:52;30.50;99.90
790;DHT22;378;48.844;9.156;2023-08-21T13:08:19;30.60;99.90
790;DHT22;378;48.844;9.156;2023-08-21T13:10:47;30.70;99.90
790;DHT22;378;48.844;9.156;2023-08-21T13:13:14;30.80;99.90
790;DHT22;378;48.844;9.156;2023-08-21T13:15:40;30.90;99.90
790;DHT22;378;48.844;9.156;2023-08-21T13:18:10;30.80;99.90
790;DHT22;378;48.844;9.156;2023-08-21T13:20:36;30.70;99.90
790;DHT22;378;48.844;9.156;2023-08-21T13:23:03;30.70;99.90
790;DHT22;378;48.844;9.156;2023-08-21T13:25:30;30.70;99.90
790;DHT22;378;48.844;9.156;2023-08-21T13:28:00;30.70;99.90
790;DHT22;378;48.844;9.156;2023-08-21T13:30:27;30.70;99.90
790;DHT22;378;48.844;9.156;2023-08-21T13:32:54;30.60;99.90
790;DHT22;378;48.844;9.156;2023-08-21T13:35:20;30.80;99.90
790;DHT22;378;48.844;9.156;2023-08-21T13:37:48;30.80;99.90
790;DHT22;378;48.844;9.156;2023-08-21T13:40:16;30.90;99.90
790;DHT22;378;48.844;9.156;2023-08-21T13:42:44;31.10;99.90
790;DHT22;378;48.844;9.156;2023-08-21T13:45:14;31.20;99.90
790;DHT22;378;48.844;9.156;2023-08-21T13:47:42;31.30;99.90
790;DHT22;378;48.844;9.156;2023-08-21T13:50:10;31.40;99.90
790;DHT22;378;48.844;9.156;2023-08-21T13:52:37;31.40;99.90
790;DHT22;378;48.844;9.156;2023-08-21T13:55:05;31.40;99.90
790;DHT22;378;48.844;9.156;2023-08-21T13:57:32;31.50;99.90
790;DHT22;378;48.844;9.156;2023-08-21T13:59:59;31.60;99.90
790;DHT22;378;48.844;9.156;2023-08-21T14:02:27;31.70;99.90
790;DHT22;378;48.844;9.156;2023-08-21T14:04:54;31.80;99.90
790;DHT22;378;48.844;9.156;2023-08-21T14:07:21;32.00;99.90
790;DHT22;378;48.844;9.156;2023-08-21T14:09:48;32.00;99.90
790;DHT22;378;48.844;9.156;2023-08-21T14:12:14;32.10;99.90
790;DHT22;378;48.844;9.156;2023-08-21T14:14:41;32.00;99.90
790;DHT22;378;48.844;9.156;2023-08-21T14:17:08;31.90;99.90
790;DHT22;378;48.844;9.156;2023-08-21T14:19:37;31.70;99.90
790;DHT22;378;48.844;9.156;2023-08-21T14:22:04;31.60;99.90
790;DHT22;378;48.844;9.156;2023-08-21T14:24:31;31.60;99.90
790;DHT22;378;48.844;9.156;2023-08-21T14:26:58;31.60;99.90
790;DHT22;378;48.844;9.156;2023-08-21T14:29:25;31.80;99.90
790;DHT22;378;48.844;9.156;2023-08-21T14:31:52;32.00;99.90
790;DHT22;378;48.844;9.156;2023-08-21T14:34:23;32.00;99.90
790;DHT22;378;48.844;9.156;2023-08-21T14:36:51;32.20;99.90
790;DHT22;378;48.844;9.156;2023-08-21T14:39:20;32.20;99.90
790;DHT22;378;48.844;9.156;2023-08-21T14:41:52;32.10;99.90
790;DHT22;378;48.844;9.156;2023-08-21T14:44:19;32.00;99.90
790;DHT22;378;48.844;9.156;2023-08-21T14:46:46;31.80;99.90
790;DHT22;378;48.844;9.156;2023-08-21T14:49:14;31.70;99.90
790;DHT22;378;48.844;9.156;2023-08-21T14:51:40;31.60;99.90
790;DHT22;378;48.844;9.156;2023-08-21T14:54:09;31.50;99.90
790;DHT22;378;48.844;9.156;2023-08-21T14:56:35;31.50;99.90
790;DHT22;378;48.844;9.156;2023-08-21T14:59:02;31.40;99.90
790;DHT22;378;48.844;9.156;2023-08-21T15:01:29;31.30;99.90
790;DHT22;378;48.844;9.156;2023-08-21T15:03:58;31.40;99.90
790;DHT22;378;48.844;9.156;2023-08-21T15:06:25;31.50;99.90
790;DHT22;378;48.844;9.156;2023-08-21T15:08:52;31.60;99.90
790;DHT22;378;48.844;9.156;2023-08-21T15:11:20;31.80;99.90
790;DHT22;378;48.844;9.156;2023-08-21T15:13:47;32.10;99.90
790;DHT22;378;48.844;9.156;2023-08-21T15:16:14;32.60;99.90
790;DHT22;378;48.844;9.156;2023-08-21T15:18:41;33.40;99.90
790;DHT22;378;48.844;9.156;2023-08-21T15:21:13;34.70;99.90
790;DHT22;378;48.844;9.156;2023-08-21T15:23:40;36.10;99.90
790;DHT22;378;48.844;9.156;2023-08-21T15:26:07;37.30;99.90
790;DHT22;378;48.844;9.156;2023-08-21T15:28:35;38.00;99.90
790;DHT22;378;48.844;9.156;2023-08-21T15:31:02;38.60;99.90
790;DHT22;378;48.844;9.156;2023-08-21T15:33:30;38.40;99.90
790;DHT22;378;48.844;9.156;2023-08-21T15:35:57;37.90;99.90
790;DHT22;378;48.844;9.156;2023-08-21T15:38:23;37.00;99.90
790;DHT22;378;48.844;9.156;2023-08-21T15:40:50;36.20;99.90
790;DHT22;378;48.844;9.156;2023-08-21T15:43:17;35.50;99.90
790;DHT22;378;48.844;9.156;2023-08-21T15:45:45;34.90;99.90
790;DHT22;378;48.844;9.156;2023-08-21T15:48:12;34.40;99.90
790;DHT22;378;48.844;9.156;2023-08-21T15:50:39;34.00;99.90
790;DHT22;378;48.844;9.156;2023-08-21T15:53:05;33.70;99.90
790;DHT22;378;48.844;9.156;2023-08-21T15:55:33;33.50;99.90
790;DHT22;378;48.844;9.156;2023-08-21T15:58:00;33.30;99.90
790;DHT22;378;48.844;9.156;2023-08-21T16:00:27;33.30;99.90
790;DHT22;378;48.844;9.156;2023-08-21T16:02:55;34.00;99.90
790;DHT22;378;48.844;9.156;2023-08-21T16:05:22;35.10;99.90
790;DHT22;378;48.844;9.156;2023-08-21T16:07:49;36.50;99.90
790;DHT22;378;48.844;9.156;2023-08-21T16:10:15;38.20;99.90
790;DHT22;378;48.844;9.156;2023-08-21T16:12:42;39.80;99.90
790;DHT22;378;48.844;9.156;2023-08-21T16:15:09;41.00;99.90
790;DHT22;378;48.844;9.156;2023-08-21T16:17:36;42.10;99.90
790;DHT22;378;48.844;9.156;2023-08-21T16:20:05;43.00;99.90
790;DHT22;378;48.844;9.156;2023-08-21T16:22:33;43.90;99.90
790;DHT22;378;48.844;9.156;2023-08-21T16:25:00;44.50;99.00
790;DHT22;378;48.844;9.156;2023-08-21T16:27:27;44.70;97.50
790;DHT22;378;48.844;9.156;2023-08-21T16:29:54;44.90;96.20
790;DHT22;378;48.844;9.156;2023-08-21T16:32:21;45.00;96.20
790;DHT22;378;48.844;9.156;2023-08-21T16:34:48;45.00;95.10
790;DHT22;378;48.844;9.156;2023-08-21T16:37:17;44.90;94.70
790;DHT22;378;48.844;9.156;2023-08-21T16:39:43;44.50;95.00
790;DHT22;378;48.844;9.156;2023-08-21T16:42:10;44.00;95.20
790;DHT22;378;48.844;9.156;2023-08-21T16:44:37;43.10;95.90
790;DHT22;378;48.844;9.156;2023-08-21T16:47:04;42.10;96.00
790;DHT22;378;48.844;9.156;2023-08-21T16:49:32;40.30;97.30
790;DHT22;378;48.844;9.156;2023-08-21T16:51:59;39.30;98.40
790;DHT22;378;48.844;9.156;2023-08-21T16:54:27;38.30;99.70
790;DHT22;378;48.844;9.156;2023-08-21T16:56:54;37.30;99.90
790;DHT22;378;48.844;9.156;2023-08-21T16:59:23;36.40;99.90
790;DHT22;378;48.844;9.156;2023-08-21T17:01:50;35.50;99.90
790;DHT22;378;48.844;9.156;2023-08-21T17:04:16;34.80;99.90
790;DHT22;378;48.844;9.156;2023-08-21T17:06:43;34.20;99.90
790;DHT22;378;48.844;9.156;2023-08-21T17:09:10;33.70;99.90
790;DHT22;378;48.844;9.156;2023-08-21T17:11:39;33.30;99.90
790;DHT22;378;48.844;9.156;2023-08-21T17:14:06;32.80;99.90
790;DHT22;378;48.844;9.156;2023-08-21T17:16:33;32.50;99.90
790;DHT22;378;48.844;9.156;2023-08-21T17:18:59;32.30;99.90
790;DHT22;378;48.844;9.156;2023-08-21T17:21:26;32.00;99.90
790;DHT22;378;48.844;9.156;2023-08-21T17:23:54;31.80;99.90
790;DHT22;378;48.844;9.156;2023-08-21T17:26:21;31.60;99.90
790;DHT22;378;48.844;9.156;2023-08-21T17:28:49;31.30;99.90
790;DHT22;378;48.844;9.156;2023-08-21T17:31:16;31.10;99.90
790;DHT22;378;48.844;9.156;2023-08-21T17:33:43;31.00;99.90
790;DHT22;378;48.844;9.156;2023-08-21T17:36:09;30.80;99.90
790;DHT22;378;48.844;9.156;2023-08-21T17:38:36;30.70;99.90
790;DHT22;378;48.844;9.156;2023-08-21T17:41:12;30.60;99.90